createdAt,value
2019-03-11T00:01:42.447Z,2.03
2019-03-11T00:04:10.440Z,1.53
2019-03-11T00:06:37.963Z,2.40
2019-03-11T00:09:05.532Z,2.30
2019-03-11T00:11:32.537Z,1.60
2019-03-11T00:13:59.455Z,2.60
2019-03-11T00:16:26.353Z,2.10
2019-03-11T00:18:53.150Z,2.10
2019-03-11T00:21:20.088Z,1.70
2019-03-11T00:23:47.200Z,2.33
2019-03-11T00:26:13.997Z,2.53
2019-03-11T00:28:40.906Z,2.17
2019-03-11T00:31:07.711Z,1.97
2019-03-11T00:33:34.637Z,3.67
2019-03-11T00:36:01.631Z,2.23
2019-03-11T00:38:28.616Z,2.87
2019-03-11T00:40:55.532Z,2.13
2019-03-11T00:43:22.579Z,3.17
2019-03-11T00:45:49.505Z,2.27
2019-03-11T00:48:16.296Z,2.20
2019-03-11T00:50:43.217Z,2.40
2019-03-11T00:53:11.085Z,2.03
2019-03-11T00:55:37.981Z,2.43
2019-03-11T00:58:04.888Z,2.67
2019-03-11T01:00:33.188Z,2.33
2019-03-11T01:03:00.100Z,2.60
2019-03-11T01:05:27.206Z,1.90
2019-03-11T01:07:54.205Z,2.50
2019-03-11T01:10:21.417Z,2.47
2019-03-11T01:12:48.317Z,3.13
2019-03-11T01:15:15.346Z,2.67
2019-03-11T01:17:42.244Z,3.33
2019-03-11T01:20:09.253Z,2.50
2019-03-11T01:22:36.250Z,3.03
2019-03-11T01:25:04.995Z,2.47
2019-03-11T01:27:32.377Z,2.97
2019-03-11T01:29:59.392Z,2.30
2019-03-11T01:32:26.402Z,3.10
2019-03-11T01:34:53.224Z,2.30
2019-03-11T01:37:20.115Z,2.23
2019-03-11T01:39:47.117Z,2.90
2019-03-11T01:42:14.110Z,2.27
2019-03-11T01:44:41.030Z,2.60
2019-03-11T01:47:08.038Z,2.50
2019-03-11T01:49:34.859Z,2.63
2019-03-11T01:52:01.772Z,1.83
2019-03-11T01:54:28.669Z,1.77
2019-03-11T01:56:55.577Z,1.80
2019-03-11T01:59:22.477Z,2.63
2019-03-11T02:01:49.485Z,2.97
2019-03-11T02:04:16.320Z,4.20
2019-03-11T02:06:43.229Z,1.87
2019-03-11T02:09:11.569Z,1.90
2019-03-11T02:11:38.592Z,2.10
2019-03-11T02:14:05.486Z,3.23
2019-03-11T02:16:32.494Z,2.17
2019-03-11T02:18:59.291Z,2.40
2019-03-11T02:21:26.218Z,2.30
2019-03-11T02:23:53.124Z,2.30
2019-03-11T02:26:20.028Z,2.57
2019-03-11T02:28:46.924Z,2.07
2019-03-11T02:31:13.813Z,2.90
2019-03-11T02:33:40.595Z,2.20
2019-03-11T02:36:07.502Z,2.80
2019-03-11T02:38:34.408Z,2.47
2019-03-11T02:41:01.408Z,2.20
2019-03-11T02:43:28.285Z,2.30
2019-03-11T02:45:55.098Z,2.97
2019-03-11T02:48:21.913Z,2.10
2019-03-11T02:50:48.687Z,2.60
2019-03-11T02:53:15.486Z,2.30
2019-03-11T02:55:42.281Z,2.13
2019-03-11T02:58:09.090Z,3.17
2019-03-11T03:00:36.084Z,2.50
2019-03-11T03:03:08.207Z,3.10
2019-03-11T03:05:39.860Z,2.00
2019-03-11T03:08:06.950Z,2.80
2019-03-11T03:10:33.853Z,2.73
2019-03-11T03:13:00.847Z,2.17
2019-03-11T03:15:27.741Z,2.83
2019-03-11T03:17:54.639Z,2.67
2019-03-11T03:20:21.528Z,3.17
2019-03-11T03:22:48.639Z,2.40
2019-03-11T03:25:15.643Z,2.57
2019-03-11T03:27:42.690Z,2.70
2019-03-11T03:30:14.498Z,2.77
2019-03-11T03:32:41.655Z,3.27
2019-03-11T03:35:08.924Z,2.37
2019-03-11T03:37:36.017Z,2.23
2019-03-11T03:40:04.222Z,2.27
2019-03-11T03:42:31.159Z,2.10
2019-03-11T03:45:26.779Z,2.47
2019-03-11T03:47:53.873Z,2.30
2019-03-11T03:50:20.782Z,3.43
2019-03-11T03:52:47.897Z,2.80
2019-03-11T03:55:14.931Z,2.60
2019-03-11T03:57:41.962Z,2.20
2019-03-11T04:00:08.957Z,2.30
2019-03-11T04:02:35.958Z,2.40
2019-03-11T04:05:03.164Z,2.03
2019-03-11T04:07:29.970Z,2.47
2019-03-11T04:09:56.958Z,3.70
2019-03-11T04:12:23.783Z,2.13
2019-03-11T04:14:50.983Z,2.30
2019-03-11T04:17:17.974Z,2.60
2019-03-11T04:19:44.985Z,2.70
2019-03-11T04:22:12.072Z,2.43
2019-03-11T04:24:38.975Z,2.80
2019-03-11T04:27:08.488Z,2.47
2019-03-11T04:29:35.388Z,2.40
2019-03-11T04:32:02.388Z,1.90
2019-03-11T04:34:29.199Z,2.17
2019-03-11T04:36:56.119Z,3.23
2019-03-11T04:39:22.940Z,2.87
2019-03-11T04:41:49.944Z,2.13
2019-03-11T04:44:16.830Z,2.20
2019-03-11T04:46:43.737Z,2.30
2019-03-11T04:49:10.637Z,1.60
2019-03-11T04:51:37.641Z,1.77
2019-03-11T04:54:04.450Z,1.40
2019-03-11T04:56:31.260Z,2.03
2019-03-11T04:59:09.133Z,2.03
2019-03-11T05:01:35.920Z,1.40
2019-03-11T05:04:02.918Z,1.70
2019-03-11T05:06:29.825Z,1.97
2019-03-11T05:08:56.729Z,1.23
2019-03-11T05:11:23.506Z,1.93
2019-03-11T05:13:50.425Z,1.73
2019-03-11T05:16:17.224Z,1.10
2019-03-11T05:18:44.036Z,1.33
2019-03-11T05:21:10.823Z,1.83
2019-03-11T05:23:37.733Z,1.30
2019-03-11T05:26:04.647Z,1.70
2019-03-11T05:28:31.562Z,1.40
2019-03-11T05:30:58.465Z,1.17
2019-03-11T05:33:25.367Z,0.80
2019-03-11T05:35:52.287Z,0.93
2019-03-11T05:38:19.185Z,0.83
2019-03-11T05:40:46.191Z,0.70
2019-03-11T05:43:12.995Z,1.13
2019-03-11T05:45:39.793Z,0.80
2019-03-11T05:48:06.585Z,1.00
2019-03-11T05:50:33.390Z,0.60
2019-03-11T05:53:00.326Z,0.73
2019-03-11T05:55:27.402Z,0.80
2019-03-11T05:57:54.188Z,0.77
2019-03-11T06:00:25.013Z,0.97
2019-03-11T06:02:51.999Z,1.10
2019-03-11T06:05:19.016Z,0.80
2019-03-11T06:07:46.015Z,1.17
2019-03-11T06:10:13.161Z,0.90
2019-03-11T06:12:40.162Z,1.03
2019-03-11T06:15:07.331Z,0.90
2019-03-11T06:17:34.271Z,1.17
2019-03-11T06:20:14.737Z,1.00
2019-03-11T06:22:41.529Z,1.03
2019-03-11T06:25:08.571Z,0.83
2019-03-11T06:27:35.562Z,1.33
2019-03-11T06:30:03.181Z,0.90
2019-03-11T06:32:30.073Z,0.87
2019-03-11T06:34:56.976Z,1.00
2019-03-11T06:37:23.894Z,0.90
2019-03-11T06:39:51.590Z,0.93
2019-03-11T06:42:18.387Z,1.00
2019-03-11T06:44:45.198Z,0.90
2019-03-11T06:47:12.085Z,0.77
2019-03-11T06:49:38.987Z,1.30
2019-03-11T06:52:05.983Z,1.20
2019-03-11T06:54:32.780Z,0.93
2019-03-11T06:56:59.578Z,0.70
2019-03-11T06:59:26.478Z,1.00
2019-03-11T07:01:53.391Z,0.90
2019-03-11T07:04:20.183Z,0.60
2019-03-11T07:06:47.001Z,0.90
2019-03-11T07:09:13.821Z,1.10
2019-03-11T07:11:40.781Z,0.80
2019-03-11T07:14:07.573Z,0.83
2019-03-11T07:16:34.577Z,1.00
2019-03-11T07:19:01.369Z,0.80
2019-03-11T07:21:28.254Z,0.83
2019-03-11T07:23:55.155Z,0.67
2019-03-11T07:26:21.973Z,1.10
2019-03-11T07:28:48.765Z,1.27
2019-03-11T07:31:15.761Z,0.80
2019-03-11T07:33:42.554Z,0.93
2019-03-11T07:36:09.627Z,0.70
2019-03-11T07:38:36.593Z,0.63
2019-03-11T07:41:03.602Z,0.90
2019-03-11T07:43:30.399Z,1.00
2019-03-11T07:45:57.300Z,0.70
2019-03-11T07:48:24.184Z,0.83
2019-03-11T07:50:51.093Z,0.83
2019-03-11T07:53:18.080Z,0.80
2019-03-11T07:55:44.886Z,0.90
2019-03-11T07:58:11.667Z,0.80
2019-03-11T08:00:38.666Z,1.30
2019-03-11T08:03:05.558Z,1.03
2019-03-11T08:05:32.557Z,1.00
2019-03-11T08:07:59.447Z,1.40
2019-03-11T08:10:26.362Z,1.15
2019-03-11T08:12:53.149Z,1.10
2019-03-11T08:15:20.155Z,1.05
2019-03-11T08:17:46.961Z,1.30
2019-03-11T08:20:14.094Z,0.75
2019-03-11T08:22:40.890Z,1.25
2019-03-11T08:25:07.901Z,1.57
2019-03-11T08:27:34.805Z,0.70
2019-03-11T08:30:01.632Z,0.87
2019-03-11T08:32:28.529Z,0.83
2019-03-11T08:34:55.411Z,0.80
2019-03-11T08:37:22.195Z,0.90
2019-03-11T08:39:48.986Z,0.70
2019-03-11T08:42:15.777Z,0.80
2019-03-11T08:44:42.679Z,0.83
2019-03-11T08:47:09.483Z,1.03
2019-03-11T08:49:36.262Z,1.00
2019-03-11T08:52:05.224Z,0.80
2019-03-11T08:54:31.958Z,1.37
2019-03-11T08:56:58.869Z,1.37
2019-03-11T08:59:25.778Z,0.87
2019-03-11T09:01:52.689Z,0.80
2019-03-11T09:04:19.693Z,1.57
2019-03-11T09:06:46.573Z,1.03
2019-03-11T09:09:13.460Z,1.47
2019-03-11T09:11:40.346Z,1.00
2019-03-11T09:14:07.271Z,0.97
2019-03-11T09:16:34.253Z,1.87
2019-03-11T09:19:01.041Z,1.37
2019-03-11T09:21:28.047Z,0.93
2019-03-11T09:23:54.853Z,1.17
2019-03-11T09:26:21.845Z,0.97
2019-03-11T09:28:48.737Z,1.07
2019-03-11T09:31:15.634Z,1.40
2019-03-11T09:33:42.610Z,1.40
2019-03-11T09:36:09.411Z,1.47
2019-03-11T09:38:36.190Z,0.83
2019-03-11T09:41:03.186Z,1.00
2019-03-11T09:43:29.970Z,0.90
2019-03-11T09:45:56.862Z,1.00
2019-03-11T09:48:23.669Z,0.83
2019-03-11T09:50:50.467Z,0.90
2019-03-11T09:53:17.354Z,0.93
2019-03-11T09:55:44.267Z,0.70
2019-03-11T09:58:11.173Z,0.80
2019-03-11T10:00:38.164Z,1.10
2019-03-11T10:03:05.138Z,1.17
2019-03-11T10:05:31.926Z,1.10
2019-03-11T10:07:59.049Z,0.90
2019-03-11T10:10:26.109Z,1.20
2019-03-11T10:12:52.905Z,1.27
2019-03-11T10:15:19.899Z,1.13
2019-03-11T10:17:46.889Z,0.87
2019-03-11T10:20:13.927Z,1.30
2019-03-11T10:22:40.974Z,1.00
2019-03-11T10:25:08.186Z,0.90
2019-03-11T10:27:35.118Z,0.70
2019-03-11T10:30:02.377Z,1.10
2019-03-11T10:32:29.173Z,1.00
2019-03-11T10:34:56.053Z,0.90
2019-03-11T10:37:23.048Z,1.10
2019-03-11T10:39:49.929Z,1.00
2019-03-11T10:42:16.818Z,0.93
2019-03-11T10:44:43.631Z,1.10
2019-03-11T10:47:10.713Z,1.20
2019-03-11T10:49:37.633Z,1.23
2019-03-11T10:52:07.188Z,1.30
2019-03-11T10:54:33.375Z,1.27
2019-03-11T10:57:00.300Z,0.90
2019-03-11T10:59:27.190Z,0.63
2019-03-11T11:01:54.109Z,1.23
2019-03-11T11:04:20.986Z,1.03
2019-03-11T11:06:47.782Z,1.53
2019-03-11T11:09:14.676Z,1.00
2019-03-11T11:11:41.593Z,1.20
2019-03-11T11:14:08.481Z,0.97
2019-03-11T11:16:35.372Z,1.17
2019-03-11T11:19:02.464Z,1.47
2019-03-11T11:21:29.263Z,1.43
2019-03-11T11:23:56.155Z,1.00
2019-03-11T11:26:23.048Z,1.07
2019-03-11T11:28:49.933Z,1.10
2019-03-11T11:31:16.937Z,0.93
2019-03-11T11:33:43.806Z,0.80
2019-03-11T11:36:10.602Z,0.80
2019-03-11T11:38:37.388Z,0.90
2019-03-11T11:41:04.387Z,1.00
2019-03-11T11:43:31.359Z,1.10
2019-03-11T11:45:58.261Z,0.60
2019-03-11T11:48:25.163Z,0.70
2019-03-11T11:50:51.938Z,1.23
2019-03-11T11:53:18.729Z,0.73
2019-03-11T11:55:45.626Z,1.20
2019-03-11T11:58:12.520Z,1.00
2019-03-11T12:00:41.356Z,1.00
2019-03-11T12:03:08.257Z,1.10
2019-03-11T12:05:35.263Z,1.00
2019-03-11T12:08:02.200Z,0.97
2019-03-11T12:10:29.343Z,1.10
2019-03-11T12:12:56.429Z,1.07
2019-03-11T12:15:23.405Z,1.10
2019-03-11T12:17:50.414Z,0.90
2019-03-11T12:20:19.130Z,0.70
2019-03-11T12:22:46.116Z,0.80
2019-03-11T12:25:14.554Z,0.87
2019-03-11T12:27:52.730Z,0.77
2019-03-11T12:30:13.709Z,1.30
2019-03-11T12:32:40.545Z,0.70
2019-03-11T12:35:08.177Z,1.30
2019-03-11T12:37:34.981Z,0.80
2019-03-11T12:40:01.776Z,1.07
2019-03-11T12:42:28.690Z,1.20
2019-03-11T12:44:55.498Z,1.13
2019-03-11T12:47:22.267Z,0.70
2019-03-11T12:49:49.069Z,0.87
2019-03-11T12:52:15.953Z,0.83
2019-03-11T12:54:42.869Z,1.10
2019-03-11T12:57:09.637Z,0.60
2019-03-11T12:59:40.510Z,0.90
2019-03-11T13:02:05.573Z,0.90
2019-03-11T13:04:32.470Z,1.07
2019-03-11T13:06:59.371Z,0.70
2019-03-11T13:09:26.284Z,0.60
2019-03-11T13:11:53.104Z,1.30
2019-03-11T13:14:19.920Z,1.20
2019-03-11T13:16:46.694Z,0.97
2019-03-11T13:19:13.817Z,0.93
2019-03-11T13:21:42.263Z,1.10
2019-03-11T13:24:09.270Z,0.87
2019-03-11T13:26:36.085Z,1.30
2019-03-11T13:29:03.106Z,0.80
2019-03-11T13:31:30.090Z,0.90
2019-03-11T13:33:56.888Z,0.90
2019-03-11T13:36:23.966Z,1.40
2019-03-11T13:38:50.883Z,0.97
2019-03-11T13:41:17.900Z,1.10
2019-03-11T13:43:44.880Z,1.10
2019-03-11T13:46:11.770Z,1.53
2019-03-11T13:48:38.750Z,1.07
2019-03-11T13:51:05.757Z,1.17
2019-03-11T13:53:32.630Z,1.30
2019-03-11T13:55:59.419Z,0.90
2019-03-11T13:58:26.213Z,0.90
2019-03-11T14:00:57.003Z,1.00
2019-03-11T14:03:26.678Z,1.40
2019-03-11T14:06:39.543Z,1.10
2019-03-11T14:09:09.361Z,1.10
2019-03-11T14:11:36.226Z,1.10
2019-03-11T14:14:03.232Z,1.10
2019-03-11T14:16:30.553Z,0.90
2019-03-11T14:18:57.429Z,1.27
2019-03-11T14:21:26.046Z,1.27
2019-03-11T14:23:52.999Z,0.80
2019-03-11T14:26:20.470Z,1.43
2019-03-11T14:28:47.354Z,1.60
2019-03-11T14:31:14.284Z,1.00
2019-03-11T14:33:41.099Z,1.23
2019-03-11T14:36:07.903Z,0.87
2019-03-11T14:38:34.892Z,1.13
2019-03-11T14:41:01.792Z,1.10
2019-03-11T14:43:28.589Z,1.43
2019-03-11T14:45:55.604Z,1.00
2019-03-11T14:48:22.388Z,1.50
2019-03-11T14:50:49.289Z,0.90
2019-03-11T14:53:16.265Z,1.53
2019-03-11T14:55:43.177Z,0.83
2019-03-11T14:58:09.979Z,1.10
2019-03-11T15:00:37.072Z,1.00
2019-03-11T15:03:04.057Z,1.63
2019-03-11T15:05:30.954Z,1.20
2019-03-11T15:07:57.835Z,1.00
2019-03-11T15:10:24.845Z,1.50
2019-03-11T15:12:51.814Z,1.43
2019-03-11T15:15:18.717Z,1.40
2019-03-11T15:17:45.695Z,1.20
2019-03-11T15:20:13.438Z,1.00
2019-03-11T15:22:40.427Z,1.17
2019-03-11T15:25:07.527Z,1.23
2019-03-11T15:27:34.522Z,1.07
2019-03-11T15:30:01.643Z,1.63
2019-03-11T15:32:28.548Z,1.20
2019-03-11T15:34:55.434Z,0.97
2019-03-11T15:37:22.643Z,1.30
2019-03-11T15:39:49.810Z,1.10
2019-03-11T15:42:16.814Z,0.70
2019-03-11T15:44:43.595Z,1.50
2019-03-11T15:47:10.577Z,1.10
2019-03-11T15:49:37.365Z,1.00
2019-03-11T15:52:04.274Z,1.20
2019-03-11T15:54:31.056Z,1.50
2019-03-11T15:56:57.847Z,0.77
2019-03-11T15:59:24.645Z,1.17
2019-03-11T16:01:51.717Z,1.30
2019-03-11T16:04:18.701Z,1.10
2019-03-11T16:06:45.588Z,1.20
2019-03-11T16:09:19.125Z,1.10
2019-03-11T16:11:41.425Z,1.70
2019-03-11T16:14:08.397Z,1.53
2019-03-11T16:16:35.291Z,1.73
2019-03-11T16:19:02.259Z,0.90
2019-03-11T16:21:29.178Z,1.00
2019-03-11T16:23:56.060Z,1.40
2019-03-11T16:26:22.969Z,1.30
2019-03-11T16:28:49.860Z,0.93
2019-03-11T16:31:16.683Z,1.27
2019-03-11T16:33:43.536Z,0.93
2019-03-11T16:36:10.555Z,1.07
2019-03-11T16:38:37.543Z,1.30
2019-03-11T16:41:04.453Z,1.30
2019-03-11T16:43:31.445Z,1.03
2019-03-11T16:45:58.440Z,0.80
2019-03-11T16:48:25.331Z,0.97
2019-03-11T16:50:52.360Z,1.00
2019-03-11T16:53:19.351Z,1.10
2019-03-11T16:55:47.340Z,0.93
2019-03-11T16:58:14.273Z,1.67
2019-03-11T17:00:41.960Z,1.23
2019-03-11T17:03:09.011Z,1.20
2019-03-11T17:05:36.041Z,1.30
2019-03-11T17:08:03.080Z,1.10
2019-03-11T17:10:30.401Z,1.53
2019-03-11T17:12:57.307Z,1.20
2019-03-11T17:15:24.176Z,1.40
2019-03-11T17:17:51.086Z,1.23
2019-03-11T17:20:18.379Z,1.30
2019-03-11T17:22:45.412Z,1.70
2019-03-11T17:25:12.641Z,1.70
2019-03-11T17:27:39.671Z,1.40
2019-03-11T17:30:08.764Z,1.13
2019-03-11T17:32:35.666Z,1.30
2019-03-11T17:35:03.187Z,0.90
2019-03-11T17:37:30.100Z,1.37
2019-03-11T17:39:57.086Z,2.00
2019-03-11T17:42:24.087Z,1.37
2019-03-11T17:44:51.199Z,1.10
2019-03-11T17:47:18.195Z,1.50
2019-03-11T17:49:44.986Z,1.50
2019-03-11T17:52:31.533Z,1.67
2019-03-11T17:54:58.330Z,1.83
2019-03-11T17:57:25.221Z,1.77
2019-03-11T17:59:52.061Z,1.40
2019-03-11T18:02:19.159Z,1.70
2019-03-11T18:04:45.946Z,1.90
2019-03-11T18:07:12.858Z,1.60
2019-03-11T18:09:39.747Z,1.20
2019-03-11T18:12:06.643Z,2.10
2019-03-11T18:14:33.661Z,1.70
2019-03-11T18:17:00.441Z,1.30
2019-03-11T18:19:27.341Z,1.50
2019-03-11T18:21:54.335Z,1.60
2019-03-11T18:24:21.241Z,1.67
2019-03-11T18:26:48.252Z,1.27
2019-03-11T18:29:15.176Z,1.73
2019-03-11T18:31:42.142Z,1.47
2019-03-11T18:34:08.978Z,1.33
2019-03-11T18:36:36.057Z,1.83
2019-03-11T18:39:05.104Z,1.33
2019-03-11T18:41:32.137Z,1.40
2019-03-11T18:43:59.221Z,1.67
2019-03-11T18:46:26.246Z,1.90
2019-03-11T18:48:53.136Z,1.50
2019-03-11T18:51:20.028Z,2.00
2019-03-11T18:53:46.824Z,1.33
2019-03-11T18:56:13.625Z,1.87
2019-03-11T18:58:40.518Z,1.03
2019-03-11T19:01:07.525Z,1.00
2019-03-11T19:03:34.476Z,1.20
2019-03-11T19:06:01.363Z,1.30
2019-03-11T19:08:28.366Z,1.30
2019-03-11T19:10:55.371Z,1.20
2019-03-11T19:13:22.426Z,1.17
2019-03-11T19:15:49.492Z,1.27
2019-03-11T19:18:16.451Z,1.37
2019-03-11T19:20:43.566Z,1.37
2019-03-11T19:23:10.521Z,1.70
2019-03-11T19:25:37.593Z,1.40
2019-03-11T19:28:04.639Z,1.37
2019-03-11T19:30:31.667Z,2.17
2019-03-11T19:32:58.571Z,1.37
2019-03-11T19:35:25.430Z,1.30
2019-03-11T19:37:52.441Z,1.20
2019-03-11T19:40:19.575Z,1.30
2019-03-11T19:42:46.613Z,1.30
2019-03-11T19:45:14.404Z,1.20
2019-03-11T19:47:41.342Z,1.00
2019-03-11T19:50:09.360Z,1.30
2019-03-11T19:52:36.179Z,1.27
2019-03-11T19:55:03.515Z,1.40
2019-03-11T19:57:30.515Z,1.37
2019-03-11T19:59:57.500Z,1.37
2019-03-11T20:02:24.594Z,1.20
2019-03-11T20:04:51.682Z,1.10
2019-03-11T20:07:18.626Z,1.33
2019-03-11T20:09:45.854Z,1.23
2019-03-11T20:12:12.946Z,1.70
2019-03-11T20:14:39.929Z,1.53
2019-03-11T20:17:06.938Z,1.50
2019-03-11T20:19:33.902Z,1.60
2019-03-11T20:22:00.799Z,1.80
2019-03-11T20:24:27.656Z,1.80
2019-03-11T20:26:54.621Z,2.20
2019-03-11T20:29:23.369Z,1.60
2019-03-11T20:31:50.318Z,1.73
2019-03-11T20:34:17.336Z,1.13
2019-03-11T20:36:44.397Z,1.77
2019-03-11T20:39:11.608Z,1.23
2019-03-11T20:41:38.613Z,1.30
2019-03-11T20:44:05.688Z,1.80
2019-03-11T20:46:32.649Z,1.17
2019-03-11T20:48:59.489Z,1.20
2019-03-11T20:51:26.362Z,1.30
2019-03-11T20:53:53.396Z,1.40
2019-03-11T20:56:20.449Z,1.20
2019-03-11T20:58:47.422Z,1.23
2019-03-11T21:01:14.286Z,2.20
2019-03-11T21:03:41.231Z,1.50
2019-03-11T21:06:08.238Z,1.47
2019-03-11T21:08:35.134Z,1.10
2019-03-11T21:11:02.112Z,1.60
2019-03-11T21:13:29.054Z,1.27
2019-03-11T21:15:56.045Z,1.27
2019-03-11T21:18:22.972Z,1.30
2019-03-11T21:20:49.920Z,1.30
2019-03-11T21:23:16.901Z,1.13
2019-03-11T21:25:43.885Z,1.30
2019-03-11T21:28:10.996Z,1.50
2019-03-11T21:30:37.931Z,1.23
2019-03-11T21:33:04.994Z,1.43
2019-03-11T21:35:32.091Z,1.50
2019-03-11T21:37:59.079Z,1.33
2019-03-11T21:40:26.244Z,1.60
2019-03-11T21:42:53.198Z,1.37
2019-03-11T21:45:33.048Z,1.30
2019-03-11T21:47:51.017Z,1.10
2019-03-11T21:50:19.177Z,1.77
2019-03-11T21:52:46.347Z,1.50
2019-03-11T21:55:13.393Z,1.73
2019-03-11T21:57:40.349Z,1.40
2019-03-11T22:00:10.197Z,1.57
2019-03-11T22:02:37.254Z,1.93
2019-03-11T22:05:04.373Z,1.43
2019-03-11T22:07:31.265Z,1.50
2019-03-11T22:09:58.091Z,1.20
2019-03-11T22:12:24.988Z,1.87
2019-03-11T22:14:52.018Z,1.17
2019-03-11T22:17:18.918Z,1.87
2019-03-11T22:19:45.818Z,1.30
2019-03-11T22:22:12.636Z,1.80
2019-03-11T22:24:39.645Z,1.90
2019-03-11T22:27:06.655Z,2.00
2019-03-11T22:29:33.458Z,1.63
2019-03-11T22:32:00.444Z,1.53
2019-03-11T22:34:27.353Z,1.50
2019-03-11T22:36:56.065Z,1.52
2019-03-11T22:39:22.942Z,1.57
2019-03-11T22:41:52.569Z,1.80
2019-03-11T22:44:18.692Z,1.17
2019-03-11T22:46:45.516Z,2.13
2019-03-11T22:49:12.305Z,1.90
2019-03-11T22:51:39.230Z,2.03
2019-03-11T22:54:06.024Z,2.07
2019-03-11T22:56:32.852Z,1.47
2019-03-11T22:58:59.764Z,2.13
2019-03-11T23:01:26.870Z,2.03
2019-03-11T23:03:53.770Z,1.80
2019-03-11T23:06:20.677Z,1.80
2019-03-11T23:08:47.651Z,1.73
2019-03-11T23:11:14.460Z,1.80
2019-03-11T23:13:41.258Z,2.57
2019-03-11T23:16:08.281Z,2.10
2019-03-11T23:18:35.170Z,2.00
2019-03-11T23:21:02.070Z,2.20
2019-03-11T23:23:28.859Z,2.07
2019-03-11T23:25:55.874Z,1.73
2019-03-11T23:28:22.902Z,1.83
2019-03-11T23:30:50.018Z,2.50
2019-03-11T23:33:17.025Z,1.80
2019-03-11T23:35:44.026Z,2.13
2019-03-11T23:38:11.134Z,2.60
2019-03-11T23:40:38.143Z,2.30
2019-03-11T23:43:05.162Z,2.77
2019-03-11T23:45:32.161Z,2.30
2019-03-11T23:47:59.075Z,3.80
2019-03-11T23:50:25.874Z,2.58
2019-03-11T23:52:52.664Z,3.50
2019-03-11T23:55:19.661Z,2.70
2019-03-11T23:57:46.469Z,2.17
